Time;durP1;ratioP1;P1;durP2;ratioP2;P2;SDS_P1;SDS_P2;PMS_P1;PMS_P2;Temp;Humidity;BMP_temperature;BMP_pressure;BME280_temperature;BME280_humidity;BME280_pressure;Samples;Min_cycle;Max_cycle;Signal;HPM_P1;HPM_P2
2023/03/13 00:01:36;;;;;;;13.70;12.50;;;9.50;99.90;;;;;;5103452;27;20430;-43
2023/03/13 00:04:02;;;;;;;14.40;13.30;;;9.50;99.90;;;;;;5113794;27;20515;-45
2023/03/13 00:06:31;;;;;;;13.97;12.73;;;9.50;99.90;;;;;;5113933;27;20434;-44
2023/03/13 00:08:59;;;;;;;13.23;12.10;;;9.50;99.90;;;;;;5120533;27;20233;-44
2023/03/13 00:11:25;;;;;;;13.20;12.13;;;9.50;99.90;;;;;;5112334;27;21048;-46
2023/03/13 00:13:56;;;;;;;13.93;12.73;;;9.60;99.90;;;;;;5119111;27;20519;-44
2023/03/13 00:16:22;;;;;;;14.43;12.93;;;9.60;99.90;;;;;;5121431;27;20461;-41
2023/03/13 00:18:50;;;;;;;14.47;13.00;;;9.60;99.90;;;;;;5108978;27;20914;-42
2023/03/13 00:21:17;;;;;;;13.73;12.30;;;9.60;99.90;;;;;;5102481;27;20501;-45
2023/03/13 00:23:43;;;;;;;13.63;12.50;;;9.60;99.90;;;;;;5115303;27;20473;-43
2023/03/13 00:26:11;;;;;;;13.73;12.73;;;9.60;99.90;;;;;;5083889;27;20440;-43
2023/03/13 00:28:39;;;;;;;13.80;12.60;;;9.60;99.90;;;;;;5116488;27;20215;-45
2023/03/13 00:31:18;;;;;;;14.27;12.90;;;9.60;99.90;;;;;;5114813;27;20981;-42
2023/03/13 00:33:46;;;;;;;13.60;12.60;;;9.60;99.90;;;;;;5101594;27;20437;-43
2023/03/13 00:36:17;;;;;;;13.30;12.20;;;9.60;99.90;;;;;;5114789;27;20559;-43
2023/03/13 00:38:43;;;;;;;13.60;12.50;;;9.70;99.90;;;;;;5117004;27;20970;-41
2023/03/13 00:41:16;;;;;;;13.80;12.50;;;9.70;99.90;;;;;;5114418;27;20432;-44
2023/03/13 00:43:43;;;;;;;14.23;12.73;;;9.70;99.90;;;;;;5113446;27;20448;-44
2023/03/13 00:46:09;;;;;;;13.80;12.37;;;9.70;99.90;;;;;;5121302;27;20848;-43
2023/03/13 00:48:35;;;;;;;13.80;12.53;;;9.70;99.90;;;;;;5115057;27;20486;-42
2023/03/13 00:51:02;;;;;;;14.00;12.80;;;9.70;99.90;;;;;;5112232;27;20438;-44
2023/03/13 00:53:28;;;;;;;13.87;12.70;;;9.70;99.90;;;;;;5115290;27;20471;-44
2023/03/13 00:55:57;;;;;;;14.30;12.90;;;9.70;99.90;;;;;;5118428;27;20485;-44
2023/03/13 00:58:23;;;;;;;13.37;12.27;;;9.70;99.90;;;;;;5120651;27;20413;-45
2023/03/13 01:00:49;;;;;;;13.97;11.93;;;9.70;99.90;;;;;;5110304;27;20544;-43
2023/03/13 01:03:16;;;;;;;13.50;12.23;;;9.80;99.90;;;;;;5114792;27;20978;-41
2023/03/13 01:05:41;;;;;;;13.27;12.07;;;9.80;99.90;;;;;;5100004;28;20433;-44
2023/03/13 01:08:07;;;;;;;12.97;12.00;;;9.90;99.90;;;;;;5120867;28;20953;-42
2023/03/13 01:10:33;;;;;;;13.53;12.27;;;9.90;99.90;;;;;;5106731;28;20179;-43
2023/03/13 01:12:59;;;;;;;13.80;12.40;;;9.80;99.90;;;;;;5120825;28;20270;-44
2023/03/13 01:15:25;;;;;;;13.60;12.40;;;9.90;99.90;;;;;;5108922;28;20443;-44
2023/03/13 01:17:51;;;;;;;13.90;12.53;;;9.90;99.90;;;;;;5115946;28;20476;-44
2023/03/13 01:20:16;;;;;;;14.40;12.90;;;9.90;99.90;;;;;;5112301;28;20183;-44
2023/03/13 01:22:42;;;;;;;13.77;12.40;;;9.90;99.90;;;;;;5111003;28;20701;-47
2023/03/13 01:25:08;;;;;;;15.10;13.57;;;9.90;99.90;;;;;;5109674;28;20221;-46
2023/03/13 01:27:33;;;;;;;13.97;12.77;;;10.00;99.90;;;;;;5113586;28;21153;-43
2023/03/13 01:29:59;;;;;;;13.70;12.50;;;9.90;99.90;;;;;;5115683;28;20188;-46
2023/03/13 01:32:25;;;;;;;13.60;12.40;;;9.90;99.90;;;;;;5120370;28;20183;-43
2023/03/13 01:34:50;;;;;;;12.83;11.77;;;9.90;99.90;;;;;;5116269;28;20658;-43
2023/03/13 01:37:16;;;;;;;13.90;12.50;;;9.80;99.90;;;;;;5120630;28;20279;-48
2023/03/13 01:39:42;;;;;;;12.40;11.50;;;9.80;99.90;;;;;;5096912;28;20529;-45
2023/03/13 01:42:07;;;;;;;12.90;11.80;;;9.80;99.90;;;;;;5115976;28;20176;-44
2023/03/13 01:44:51;;;;;;;12.67;11.63;;;9.90;99.90;;;;;;5115054;28;20272;-45
2023/03/13 01:47:17;;;;;;;12.73;11.50;;;9.90;99.90;;;;;;5102350;28;21208;-43
2023/03/13 01:49:43;;;;;;;13.07;11.80;;;9.90;99.90;;;;;;5107296;27;20448;-43
2023/03/13 01:52:10;;;;;;;13.00;11.80;;;9.80;99.90;;;;;;5124068;27;20190;-45
2023/03/13 01:54:48;;;;;;;12.87;11.47;;;9.80;99.90;;;;;;5112182;27;20490;-46
2023/03/13 01:57:32;;;;;;;13.10;11.93;;;9.80;99.90;;;;;;5124505;27;20460;-46
2023/03/13 02:00:11;;;;;;;12.57;11.40;;;9.80;99.90;;;;;;5113651;27;20527;-45
2023/03/13 02:02:39;;;;;;;12.77;11.63;;;9.70;99.90;;;;;;5118418;27;20943;-45
2023/03/13 02:05:06;;;;;;;12.73;11.50;;;9.70;99.90;;;;;;5119583;27;21245;-42
2023/03/13 02:07:43;;;;;;;13.00;11.70;;;9.70;99.90;;;;;;5117342;27;20424;-44
2023/03/13 02:10:10;;;;;;;12.80;11.60;;;9.80;99.90;;;;;;5112189;27;20480;-45
2023/03/13 02:12:41;;;;;;;13.80;11.97;;;9.90;99.90;;;;;;5122208;27;21438;-43
2023/03/13 02:15:15;;;;;;;13.23;12.03;;;9.80;99.90;;;;;;5111754;27;20430;-45
2023/03/13 02:17:41;;;;;;;12.70;11.40;;;9.80;99.90;;;;;;5110235;27;20463;-44
2023/03/13 02:20:08;;;;;;;12.50;11.53;;;9.70;99.90;;;;;;5121367;27;20484;-44
2023/03/13 02:23:06;;;;;;;13.33;11.70;;;9.70;99.90;;;;;;5112259;27;20477;-47
2023/03/13 02:25:44;;;;;;;13.90;12.50;;;9.60;99.90;;;;;;5104488;27;20825;-45
2023/03/13 02:28:15;;;;;;;12.70;11.47;;;9.60;99.90;;;;;;5123425;27;20420;-43
2023/03/13 02:30:43;;;;;;;12.77;11.77;;;9.60;99.90;;;;;;5117157;27;20423;-45
2023/03/13 02:33:11;;;;;;;12.83;11.53;;;9.50;99.90;;;;;;5121073;27;20447;-43
2023/03/13 02:35:36;;;;;;;17.53;12.03;;;9.60;99.90;;;;;;5122128;27;20424;-42
2023/03/13 02:38:06;;;;;;;14.00;11.87;;;9.60;99.90;;;;;;5121248;27;21375;-46
2023/03/13 02:40:39;;;;;;;12.10;11.10;;;9.60;99.90;;;;;;5114776;27;20313;-45
2023/03/13 02:43:10;;;;;;;13.50;12.20;;;9.50;99.90;;;;;;5103330;27;20437;-44
2023/03/13 02:45:35;;;;;;;12.57;11.47;;;9.50;99.90;;;;;;5122544;27;20941;-49
2023/03/13 02:48:01;;;;;;;13.27;11.87;;;9.50;99.90;;;;;;5105725;27;20485;-44
2023/03/13 02:50:27;;;;;;;11.93;11.00;;;9.50;99.90;;;;;;5123123;27;20713;-44
2023/03/13 02:52:56;;;;;;;14.60;12.03;;;9.50;99.90;;;;;;5120032;27;20544;-42
2023/03/13 02:55:31;;;;;;;16.00;11.40;;;9.60;99.90;;;;;;5123096;27;20425;-45
2023/03/13 02:57:56;;;;;;;11.50;10.50;;;9.60;99.90;;;;;;5119156;27;20469;-41
2023/03/13 03:00:25;;;;;;;13.37;11.93;;;9.70;99.90;;;;;;5118902;27;20421;-46
2023/03/13 03:02:55;;;;;;;12.33;11.30;;;9.70;99.90;;;;;;5108261;27;20183;-46
2023/03/13 03:05:21;;;;;;;14.43;11.80;;;9.80;99.90;;;;;;5122903;27;20419;-45
2023/03/13 03:07:47;;;;;;;12.57;11.03;;;9.80;99.90;;;;;;5109626;27;20437;-43
2023/03/13 03:10:13;;;;;;;11.87;10.80;;;9.80;99.90;;;;;;5094470;27;20438;-43
2023/03/13 03:12:39;;;;;;;12.40;11.17;;;9.90;99.90;;;;;;5105899;27;20450;-43
2023/03/13 03:15:05;;;;;;;12.60;11.40;;;10.00;99.90;;;;;;5122640;27;20412;-46
2023/03/13 03:17:31;;;;;;;12.70;11.20;;;10.10;99.90;;;;;;5109349;27;20212;-43
2023/03/13 03:19:56;;;;;;;13.10;10.80;;;10.00;99.90;;;;;;5114149;27;20485;-43
2023/03/13 03:22:22;;;;;;;12.43;11.17;;;10.00;99.90;;;;;;5116724;27;20230;-48
2023/03/13 03:24:47;;;;;;;12.10;11.10;;;10.00;99.90;;;;;;5120485;27;20252;-47
2023/03/13 03:27:13;;;;;;;11.50;10.60;;;10.10;99.90;;;;;;5116406;27;20254;-43
2023/03/13 03:29:39;;;;;;;15.90;11.60;;;10.10;99.90;;;;;;5121325;27;20262;-45
2023/03/13 03:32:05;;;;;;;12.20;11.00;;;10.10;99.90;;;;;;5115296;27;20288;-43
2023/03/13 03:34:30;;;;;;;11.40;10.40;;;10.10;99.90;;;;;;5119590;27;20198;-44
2023/03/13 03:36:56;;;;;;;12.27;11.10;;;10.10;99.90;;;;;;5119633;27;20226;-42
2023/03/13 03:39:22;;;;;;;11.73;10.80;;;10.20;99.90;;;;;;5111204;27;20171;-43
2023/03/13 03:41:48;;;;;;;13.57;10.90;;;10.10;99.90;;;;;;5106901;27;20795;-49
2023/03/13 03:44:13;;;;;;;11.87;10.77;;;10.10;99.90;;;;;;5105969;27;20594;-44
2023/03/13 03:46:39;;;;;;;11.77;10.53;;;10.10;99.90;;;;;;5117417;27;20176;-45
2023/03/13 03:49:05;;;;;;;12.40;11.20;;;10.10;99.90;;;;;;5114700;27;20552;-45
2023/03/13 03:51:30;;;;;;;12.63;11.33;;;10.00;99.90;;;;;;5118748;27;20274;-43
2023/03/13 03:53:56;;;;;;;11.50;10.60;;;10.00;99.90;;;;;;5112145;27;20179;-44
2023/03/13 03:56:21;;;;;;;12.07;10.83;;;10.10;99.90;;;;;;5120813;27;20557;-45
2023/03/13 03:58:47;;;;;;;12.60;11.40;;;10.00;99.90;;;;;;5107806;27;20176;-45
2023/03/13 04:01:12;;;;;;;12.33;11.13;;;10.00;99.90;;;;;;5118176;27;20228;-45
2023/03/13 04:03:38;;;;;;;13.53;10.37;;;10.10;99.90;;;;;;5112450;27;20264;-44
2023/03/13 04:06:05;;;;;;;12.07;10.90;;;10.20;99.90;;;;;;5119615;27;20189;-45
2023/03/13 04:08:31;;;;;;;12.90;10.83;;;10.10;99.90;;;;;;5087441;28;20726;-46
2023/03/13 04:10:59;;;;;;;11.50;10.50;;;10.10;99.90;;;;;;5121339;27;20516;-48
2023/03/13 04:13:24;;;;;;;12.33;10.90;;;9.90;99.90;;;;;;5104287;27;20447;-48
2023/03/13 04:15:50;;;;;;;11.23;10.43;;;9.80;99.90;;;;;;5103036;27;20481;-44
2023/03/13 04:18:15;;;;;;;12.10;10.83;;;9.70;99.90;;;;;;5109370;27;20800;-43
2023/03/13 04:20:41;;;;;;;11.90;10.67;;;9.70;99.90;;;;;;5102334;27;20280;-44
2023/03/13 04:23:07;;;;;;;13.07;11.73;;;9.60;99.90;;;;;;5110604;27;20233;-45
2023/03/13 04:25:32;;;;;;;10.97;10.00;;;9.60;99.90;;;;;;5101889;28;20797;-44
2023/03/13 04:27:58;;;;;;;12.60;10.90;;;9.60;99.90;;;;;;5106277;27;20556;-45
2023/03/13 04:30:23;;;;;;;11.30;10.30;;;9.50;99.90;;;;;;5101755;27;20191;-44
2023/03/13 04:32:49;;;;;;;12.30;11.10;;;9.50;99.90;;;;;;5101200;27;20685;-43
2023/03/13 04:35:16;;;;;;;12.07;10.77;;;9.40;99.90;;;;;;5105865;27;20262;-41
2023/03/13 04:37:41;;;;;;;12.50;10.53;;;9.30;99.90;;;;;;5119022;27;20509;-45
2023/03/13 04:40:08;;;;;;;11.27;10.17;;;9.40;99.90;;;;;;5108339;27;20409;-47
2023/03/13 04:42:33;;;;;;;10.50;9.60;;;9.30;99.90;;;;;;5101518;27;20212;-47
2023/03/13 04:44:59;;;;;;;11.47;10.37;;;9.20;99.90;;;;;;5083168;28;20893;-46
2023/03/13 04:47:25;;;;;;;11.10;9.97;;;9.20;99.90;;;;;;5101306;28;20195;-45
2023/03/13 04:49:50;;;;;;;13.97;10.00;;;9.10;99.90;;;;;;5120641;27;20191;-43
2023/03/13 04:52:16;;;;;;;13.40;10.90;;;9.10;99.90;;;;;;5105655;27;20199;-48
2023/03/13 04:54:42;;;;;;;11.77;10.50;;;9.00;99.90;;;;;;5101788;28;21437;-44
2023/03/13 04:57:07;;;;;;;10.50;9.70;;;9.00;99.90;;;;;;5109717;27;20306;-44
2023/03/13 04:59:33;;;;;;;11.50;10.30;;;9.00;99.90;;;;;;5107582;27;20204;-48
2023/03/13 05:01:59;;;;;;;11.50;10.40;;;9.10;99.90;;;;;;5104712;28;20183;-46
2023/03/13 05:04:24;;;;;;;11.63;10.47;;;9.10;99.90;;;;;;5108232;27;20191;-48
2023/03/13 05:06:50;;;;;;;10.67;9.77;;;9.20;99.90;;;;;;5117611;28;20187;-43
2023/03/13 05:09:15;;;;;;;12.30;9.70;;;9.20;99.90;;;;;;5115157;28;20538;-42
2023/03/13 05:11:41;;;;;;;14.80;9.67;;;9.30;99.90;;;;;;5116873;28;20194;-42
2023/03/13 05:14:09;;;;;;;11.40;9.40;;;9.20;99.90;;;;;;5104217;28;20942;-45
2023/03/13 05:16:36;;;;;;;10.73;9.83;;;9.20;99.90;;;;;;5117957;28;20218;-45
2023/03/13 05:19:01;;;;;;;12.07;9.90;;;9.20;99.90;;;;;;5110068;28;20416;-47
2023/03/13 05:21:27;;;;;;;11.80;10.67;;;9.20;99.90;;;;;;5118878;27;20411;-48
2023/03/13 05:23:53;;;;;;;11.80;10.70;;;9.20;99.90;;;;;;5110323;27;20231;-43
2023/03/13 05:26:18;;;;;;;11.20;10.20;;;9.10;99.90;;;;;;5123924;27;20232;-44
2023/03/13 05:28:44;;;;;;;12.07;10.87;;;9.10;99.90;;;;;;5115154;27;20958;-45
2023/03/13 05:31:09;;;;;;;14.60;11.60;;;9.00;99.90;;;;;;5120520;27;20976;-44
2023/03/13 05:33:35;;;;;;;13.37;11.97;;;9.00;99.90;;;;;;5124378;27;20213;-43
2023/03/13 05:36:00;;;;;;;11.50;10.60;;;9.00;99.90;;;;;;5118962;27;20194;-43
2023/03/13 05:38:26;;;;;;;13.37;12.07;;;9.00;99.90;;;;;;5124299;27;20198;-47
2023/03/13 05:40:52;;;;;;;12.97;11.67;;;9.00;99.90;;;;;;5122693;27;20187;-45
2023/03/13 05:43:17;;;;;;;13.93;11.97;;;9.00;99.90;;;;;;5119216;27;20937;-43
2023/03/13 05:45:43;;;;;;;12.20;11.23;;;9.10;99.90;;;;;;5121344;27;20184;-44
2023/03/13 05:48:08;;;;;;;15.73;12.80;;;9.10;99.90;;;;;;5122746;27;20187;-43
2023/03/13 05:50:34;;;;;;;13.50;12.30;;;9.10;99.90;;;;;;5124146;27;20217;-47
2023/03/13 05:53:00;;;;;;;14.57;13.17;;;9.10;99.90;;;;;;5109275;27;20629;-45
2023/03/13 05:55:25;;;;;;;15.30;13.13;;;9.10;99.90;;;;;;5119020;27;20599;-45
2023/03/13 05:57:51;;;;;;;13.80;12.70;;;9.10;99.90;;;;;;5124464;27;20235;-42
2023/03/13 06:00:18;;;;;;;14.47;13.10;;;9.10;99.90;;;;;;5113076;27;20879;-45
2023/03/13 06:02:43;;;;;;;16.87;14.07;;;9.20;99.90;;;;;;5113311;27;20648;-42
2023/03/13 06:05:09;;;;;;;15.23;13.50;;;9.20;99.90;;;;;;5110712;27;20457;-43
2023/03/13 06:07:35;;;;;;;16.30;14.83;;;9.20;99.90;;;;;;5117040;27;20185;-43
2023/03/13 06:10:02;;;;;;;15.93;14.33;;;9.30;99.90;;;;;;5124042;27;20413;-46
2023/03/13 06:12:27;;;;;;;17.40;15.40;;;9.30;99.90;;;;;;5120409;27;20447;-45
2023/03/13 06:14:53;;;;;;;17.80;16.00;;;9.30;99.90;;;;;;5118682;27;20424;-44
2023/03/13 06:17:18;;;;;;;16.37;14.80;;;9.30;99.90;;;;;;5124144;27;20599;-50
2023/03/13 06:19:45;;;;;;;18.33;16.50;;;9.30;99.90;;;;;;5123565;27;20190;-42
2023/03/13 06:22:11;;;;;;;17.67;15.83;;;9.30;99.90;;;;;;5114770;27;20256;-41
2023/03/13 06:24:37;;;;;;;19.40;17.60;;;9.30;99.90;;;;;;5104676;27;20438;-41
2023/03/13 06:27:02;;;;;;;19.97;17.57;;;9.30;99.90;;;;;;5123587;27;20194;-44
2023/03/13 06:29:28;;;;;;;18.70;16.70;;;9.40;99.90;;;;;;5110528;27;20192;-44
2023/03/13 06:31:54;;;;;;;19.87;17.97;;;9.40;99.90;;;;;;5115272;27;20183;-46
2023/03/13 06:34:19;;;;;;;18.67;16.70;;;9.40;99.90;;;;;;5123191;27;20214;-47
2023/03/13 06:36:45;;;;;;;19.83;17.80;;;9.40;99.90;;;;;;5111193;27;20536;-45
2023/03/13 06:39:11;;;;;;;20.13;17.90;;;9.40;99.90;;;;;;5103803;27;20641;-44
2023/03/13 06:41:37;;;;;;;18.97;17.20;;;9.50;99.90;;;;;;5104132;27;20922;-47
2023/03/13 06:44:03;;;;;;;18.73;16.93;;;9.50;99.90;;;;;;5103893;27;20425;-46
2023/03/13 06:46:30;;;;;;;19.90;18.30;;;9.50;99.90;;;;;;5103741;27;20188;-48
2023/03/13 06:48:57;;;;;;;18.63;17.03;;;9.60;99.90;;;;;;5103957;27;20410;-47
2023/03/13 06:51:25;;;;;;;19.07;17.20;;;9.70;99.90;;;;;;5123476;27;20952;-47
2023/03/13 06:53:51;;;;;;;18.43;16.60;;;9.70;99.90;;;;;;5108522;27;20416;-43
2023/03/13 06:56:17;;;;;;;18.40;16.73;;;9.70;99.90;;;;;;5111804;27;20484;-45
2023/03/13 06:58:47;;;;;;;18.40;16.50;;;9.80;99.90;;;;;;5110948;27;20433;-44
2023/03/13 07:01:14;;;;;;;16.47;14.90;;;9.90;99.90;;;;;;5103827;27;20430;-44
2023/03/13 07:03:40;;;;;;;17.03;15.63;;;10.00;99.90;;;;;;5122064;27;20957;-43
2023/03/13 07:06:07;;;;;;;17.67;16.10;;;10.00;99.90;;;;;;5123050;27;20507;-44
2023/03/13 07:08:34;;;;;;;16.23;14.77;;;10.00;99.90;;;;;;5123112;27;20445;-45
2023/03/13 07:11:06;;;;;;;16.33;14.83;;;10.00;99.90;;;;;;5122730;27;20619;-45
2023/03/13 07:13:32;;;;;;;17.70;16.20;;;10.10;99.90;;;;;;5120056;27;20481;-46
2023/03/13 07:16:03;;;;;;;16.33;15.03;;;10.20;99.90;;;;;;5120230;27;20770;-46
2023/03/13 07:18:29;;;;;;;16.00;14.90;;;10.20;99.90;;;;;;5121798;27;20173;-43
2023/03/13 07:20:57;;;;;;;17.83;16.13;;;10.30;99.90;;;;;;5122871;27;20424;-46
2023/03/13 07:23:24;;;;;;;17.97;16.27;;;10.40;99.90;;;;;;5104195;27;20481;-44
2023/03/13 07:26:05;;;;;;;17.70;16.00;;;10.40;99.90;;;;;;5087041;27;20456;-43
2023/03/13 07:28:31;;;;;;;17.10;15.73;;;10.50;99.90;;;;;;5118540;27;20894;-43
2023/03/13 07:31:04;;;;;;;17.47;15.83;;;10.50;99.90;;;;;;5119497;27;20504;-45
2023/03/13 07:33:30;;;;;;;16.83;15.50;;;10.50;99.90;;;;;;5119334;27;20411;-45
2023/03/13 07:35:55;;;;;;;16.10;14.60;;;10.60;99.90;;;;;;5112630;27;20443;-45
2023/03/13 07:38:21;;;;;;;16.33;15.03;;;10.60;99.90;;;;;;5103534;27;20188;-48
2023/03/13 07:40:51;;;;;;;16.40;15.10;;;10.70;99.90;;;;;;5111078;27;20236;-44
2023/03/13 07:43:17;;;;;;;18.27;16.67;;;10.70;99.90;;;;;;5121338;27;20216;-47
2023/03/13 07:45:57;;;;;;;18.87;17.17;;;10.70;99.90;;;;;;5103087;27;20527;-48
2023/03/13 07:48:25;;;;;;;17.50;16.20;;;10.70;99.90;;;;;;5117878;27;20250;-46
2023/03/13 07:50:51;;;;;;;18.80;17.20;;;10.60;99.90;;;;;;5121660;27;20412;-47
2023/03/13 07:53:20;;;;;;;19.10;17.50;;;10.40;99.90;;;;;;5109116;27;20408;-44
2023/03/13 07:55:59;;;;;;;19.53;18.03;;;10.40;99.90;;;;;;5116113;27;20440;-49
2023/03/13 07:58:27;;;;;;;19.63;17.87;;;10.30;99.90;;;;;;5121943;27;20499;-45
2023/03/13 08:00:53;;;;;;;19.30;17.90;;;10.20;99.90;;;;;;5096477;27;20414;-43
2023/03/13 08:03:20;;;;;;;21.27;19.03;;;10.20;99.90;;;;;;5121671;27;20410;-46
2023/03/13 08:05:45;;;;;;;20.37;18.80;;;10.20;99.90;;;;;;5122052;27;20413;-47
2023/03/13 08:08:11;;;;;;;19.60;18.10;;;10.20;99.90;;;;;;5120388;27;20765;-49
2023/03/13 08:10:37;;;;;;;22.60;20.70;;;10.20;99.90;;;;;;5122009;27;20184;-44
2023/03/13 08:13:03;;;;;;;20.33;18.70;;;10.20;99.90;;;;;;5118715;27;20177;-44
2023/03/13 08:15:28;;;;;;;19.70;18.20;;;10.20;99.90;;;;;;5095483;28;20541;-43
2023/03/13 08:17:55;;;;;;;20.90;19.20;;;10.10;99.90;;;;;;5113424;27;20197;-42
2023/03/13 08:20:21;;;;;;;21.47;19.77;;;10.10;99.90;;;;;;5120285;27;20798;-45
2023/03/13 08:22:48;;;;;;;20.57;18.90;;;10.10;99.90;;;;;;5121334;27;20452;-45
2023/03/13 08:25:14;;;;;;;19.03;17.73;;;9.90;99.90;;;;;;5120641;27;20270;-47
2023/03/13 08:27:39;;;;;;;21.10;19.33;;;9.90;99.90;;;;;;5121420;27;20406;-45
2023/03/13 08:30:05;;;;;;;20.47;18.93;;;9.90;99.90;;;;;;5105927;27;20247;-42
2023/03/13 08:32:35;;;;;;;21.33;19.73;;;9.90;99.90;;;;;;5104445;27;20202;-44
2023/03/13 08:35:01;;;;;;;21.30;19.73;;;9.80;99.90;;;;;;5103198;27;20439;-47
2023/03/13 08:37:27;;;;;;;20.63;19.03;;;9.80;99.90;;;;;;5115788;27;20465;-45
2023/03/13 08:39:55;;;;;;;21.90;20.10;;;9.80;99.90;;;;;;5116389;27;20478;-45
2023/03/13 08:42:21;;;;;;;23.47;21.53;;;9.80;99.90;;;;;;5121150;27;20172;-44
2023/03/13 08:44:47;;;;;;;20.10;18.47;;;9.80;99.90;;;;;;5105346;27;20433;-44
2023/03/13 08:47:13;;;;;;;19.10;17.60;;;9.70;99.90;;;;;;5114002;27;20463;-45
2023/03/13 08:49:38;;;;;;;20.37;18.67;;;9.70;99.90;;;;;;5121248;27;20257;-46
2023/03/13 08:52:05;;;;;;;19.87;18.27;;;9.70;99.90;;;;;;5117014;27;20410;-42
2023/03/13 08:54:32;;;;;;;18.57;17.27;;;9.80;99.90;;;;;;5116997;27;20180;-47
2023/03/13 08:56:58;;;;;;;18.40;17.20;;;9.80;99.90;;;;;;5119860;27;20452;-43
2023/03/13 08:59:25;;;;;;;16.57;15.40;;;9.90;99.90;;;;;;5116889;27;20422;-44
2023/03/13 09:01:50;;;;;;;16.90;15.80;;;10.00;99.90;;;;;;5119289;27;20420;-46
2023/03/13 09:04:17;;;;;;;16.80;15.60;;;10.10;99.90;;;;;;5120604;27;20419;-45
2023/03/13 09:06:42;;;;;;;17.47;16.20;;;10.20;99.90;;;;;;5118606;27;20178;-43
2023/03/13 09:09:09;;;;;;;16.10;15.10;;;10.30;99.90;;;;;;5111769;28;21563;-44
2023/03/13 09:11:36;;;;;;;16.27;15.17;;;10.40;99.90;;;;;;5118533;28;20277;-49
2023/03/13 09:14:02;;;;;;;16.57;15.37;;;10.40;99.90;;;;;;5110703;28;20429;-44
2023/03/13 09:16:29;;;;;;;14.20;13.27;;;10.50;99.90;;;;;;5102022;28;20486;-46
2023/03/13 09:18:56;;;;;;;15.60;14.50;;;10.70;99.90;;;;;;5120483;28;20173;-45
2023/03/13 09:21:24;;;;;;;14.83;13.83;;;10.70;99.90;;;;;;5106066;28;20518;-47
2023/03/13 09:23:50;;;;;;;12.90;12.10;;;10.80;99.90;;;;;;5112851;28;21005;-42
2023/03/13 09:26:17;;;;;;;13.30;12.20;;;10.90;99.90;;;;;;5119634;28;20418;-50
2023/03/13 09:28:44;;;;;;;12.00;11.20;;;11.00;99.90;;;;;;5120555;28;20417;-44
2023/03/13 09:31:23;;;;;;;12.13;11.03;;;11.00;99.90;;;;;;5107091;28;20502;-44
2023/03/13 09:33:50;;;;;;;13.47;12.67;;;11.10;99.90;;;;;;5115822;28;20998;-47
2023/03/13 09:36:16;;;;;;;11.70;11.00;;;11.10;99.90;;;;;;5110827;28;20481;-48
2023/03/13 09:38:42;;;;;;;11.40;10.67;;;11.10;99.90;;;;;;5119385;28;20417;-49
2023/03/13 09:41:19;;;;;;;10.93;10.40;;;11.20;99.90;;;;;;5121219;28;20807;-45
2023/03/13 09:43:50;;;;;;;11.77;10.97;;;11.40;99.90;;;;;;5119007;28;20686;-47
2023/03/13 09:46:38;;;;;;;15.03;14.23;;;11.50;99.90;;;;;;5112578;28;20416;-43
2023/03/13 09:49:26;;;;;;;16.00;15.30;;;11.50;99.90;;;;;;5120582;28;20415;-48
2023/03/13 09:52:17;;;;;;;14.80;14.10;;;11.50;99.90;;;;;;5094753;28;20442;-44
2023/03/13 09:55:14;;;;;;;15.07;14.37;;;11.40;99.90;;;;;;5120448;28;20419;-43
2023/03/13 09:57:56;;;;;;;15.30;14.60;;;11.40;99.90;;;;;;5120389;28;20794;-45
2023/03/13 10:00:38;;;;;;;15.40;14.53;;;11.40;99.90;;;;;;5114450;28;20695;-42
2023/03/13 10:03:10;;;;;;;16.33;15.43;;;11.40;99.90;;;;;;5120127;28;20416;-42
2023/03/13 10:05:47;;;;;;;15.97;15.07;;;11.50;99.90;;;;;;5119778;28;20512;-43
2023/03/13 10:08:17;;;;;;;15.67;14.87;;;11.60;99.90;;;;;;5120633;27;20414;-46
2023/03/13 10:10:57;;;;;;;16.37;15.37;;;11.70;99.90;;;;;;5122683;27;21450;-44
2023/03/13 10:13:36;;;;;;;16.20;15.30;;;11.70;99.90;;;;;;5115213;27;20481;-48
2023/03/13 10:16:09;;;;;;;15.80;15.00;;;11.70;99.90;;;;;;5098667;27;20443;-46
2023/03/13 10:18:35;;;;;;;16.20;15.37;;;11.80;99.90;;;;;;5120800;27;20415;-49
2023/03/13 10:21:15;;;;;;;16.70;15.80;;;11.90;99.90;;;;;;5123593;27;20862;-43
2023/03/13 10:23:45;;;;;;;17.17;16.07;;;11.90;99.90;;;;;;5117106;27;20475;-46
2023/03/13 10:26:20;;;;;;;17.70;16.70;;;11.90;99.90;;;;;;5123317;27;20415;-44
2023/03/13 10:28:46;;;;;;;18.63;17.50;;;12.00;99.90;;;;;;5118060;27;20412;-48
2023/03/13 10:31:31;;;;;;;18.73;17.53;;;11.90;99.90;;;;;;5116923;27;20420;-49
2023/03/13 10:34:11;;;;;;;19.97;18.77;;;11.90;99.90;;;;;;5121046;27;20416;-43
2023/03/13 10:36:43;;;;;;;20.87;19.47;;;11.90;99.90;;;;;;5111530;27;21049;-44
2023/03/13 10:39:18;;;;;;;19.90;18.60;;;11.90;99.90;;;;;;5123439;27;20439;-42
2023/03/13 10:41:44;;;;;;;20.43;18.93;;;11.90;99.90;;;;;;5120131;27;20461;-47
2023/03/13 10:44:18;;;;;;;18.30;17.03;;;12.00;99.90;;;;;;5121545;27;20876;-49
2023/03/13 10:46:46;;;;;;;18.07;17.03;;;12.10;99.90;;;;;;5123567;27;20174;-46
2023/03/13 10:49:17;;;;;;;17.53;16.53;;;12.20;99.90;;;;;;5123169;27;20507;-45
2023/03/13 10:51:50;;;;;;;16.30;15.30;;;12.30;99.90;;;;;;5122433;27;20411;-48
2023/03/13 10:54:31;;;;;;;17.63;16.40;;;12.40;99.90;;;;;;5104361;27;20554;-44
2023/03/13 10:57:17;;;;;;;15.20;14.40;;;12.60;99.90;;;;;;5123257;27;20551;-45
2023/03/13 10:59:46;;;;;;;15.60;14.70;;;12.80;99.90;;;;;;5116524;27;20522;-44
2023/03/13 11:02:37;;;;;;;14.90;14.00;;;12.90;99.90;;;;;;5116855;27;20511;-46
2023/03/13 11:05:23;;;;;;;14.60;13.80;;;13.00;99.90;;;;;;5111039;27;20515;-46
2023/03/13 11:07:49;;;;;;;13.50;12.60;;;13.20;99.90;;;;;;5121918;27;20424;-46
2023/03/13 11:10:22;;;;;;;13.43;12.53;;;13.40;99.90;;;;;;5120275;27;20425;-43
2023/03/13 11:12:57;;;;;;;13.50;12.67;;;13.50;99.90;;;;;;5122140;27;21314;-48
2023/03/13 11:15:38;;;;;;;11.67;11.07;;;13.60;99.90;;;;;;5112876;27;20446;-46
2023/03/13 11:18:25;;;;;;;12.60;11.80;;;13.80;99.90;;;;;;5108781;27;20497;-45
2023/03/13 11:20:51;;;;;;;11.60;11.00;;;13.90;99.90;;;;;;5121943;27;20404;-45
2023/03/13 11:23:26;;;;;;;12.20;11.50;;;14.10;99.90;;;;;;5103112;27;20518;-46
2023/03/13 11:26:00;;;;;;;11.00;10.40;;;14.20;99.90;;;;;;5103213;27;20551;-48
2023/03/13 11:28:45;;;;;;;9.73;9.23;;;14.60;99.90;;;;;;5122578;27;20902;-44
2023/03/13 11:31:28;;;;;;;10.60;10.10;;;14.70;99.90;;;;;;5107695;27;20417;-43
2023/03/13 11:34:16;;;;;;;10.40;9.93;;;14.90;99.90;;;;;;5104103;27;20457;-45
2023/03/13 11:36:54;;;;;;;10.30;9.80;;;15.10;99.90;;;;;;5106812;27;20452;-47
2023/03/13 11:39:28;;;;;;;10.90;10.50;;;15.00;99.90;;;;;;5110658;27;20414;-50
2023/03/13 11:42:06;;;;;;;10.50;10.00;;;15.10;99.90;;;;;;5110316;27;20479;-47
2023/03/13 11:45:05;;;;;;;10.20;9.80;;;15.10;99.90;;;;;;5116615;27;20420;-44
2023/03/13 11:47:54;;;;;;;10.80;10.33;;;15.20;99.90;;;;;;5115121;27;20453;-46
2023/03/13 11:50:25;;;;;;;10.07;9.60;;;15.30;99.90;;;;;;5121944;27;20428;-44
2023/03/13 11:53:10;;;;;;;11.17;10.67;;;15.20;99.90;;;;;;5117724;27;20498;-47
2023/03/13 11:56:03;;;;;;;10.70;10.20;;;15.30;99.90;;;;;;5121451;27;20477;-47
2023/03/13 11:59:10;;;;;;;10.80;10.30;;;15.00;99.90;;;;;;5122020;27;20473;-43
2023/03/13 12:01:42;;;;;;;10.10;9.70;;;15.10;99.90;;;;;;5108979;27;20551;-45
2023/03/13 12:04:21;;;;;;;10.47;10.03;;;15.00;99.90;;;;;;5121635;27;21114;-46
2023/03/13 12:06:59;;;;;;;9.80;9.30;;;14.90;99.90;;;;;;5121715;27;20404;-50
2023/03/13 12:09:27;;;;;;;9.97;9.47;;;14.80;99.90;;;;;;5114808;27;20425;-44
2023/03/13 12:12:34;;;;;;;10.00;9.50;;;14.80;99.90;;;;;;5121874;27;20520;-47
2023/03/13 12:15:19;;;;;;;9.50;9.07;;;14.90;99.90;;;;;;5109943;27;20767;-45
2023/03/13 12:18:23;;;;;;;9.80;9.40;;;14.80;99.90;;;;;;5098680;27;20456;-44
2023/03/13 12:21:12;;;;;;;9.93;9.43;;;14.80;99.90;;;;;;5107481;27;20504;-48
2023/03/13 12:23:52;;;;;;;9.87;9.47;;;14.80;99.90;;;;;;5121268;27;20595;-47
2023/03/13 12:26:20;;;;;;;10.37;9.93;;;14.80;99.90;;;;;;5101868;28;20417;-44
2023/03/13 12:29:09;;;;;;;10.20;9.70;;;14.80;99.90;;;;;;5102039;27;20434;-48
2023/03/13 12:31:36;;;;;;;9.40;9.00;;;14.90;99.90;;;;;;5101590;27;20917;-48
2023/03/13 12:34:15;;;;;;;9.90;9.40;;;14.80;99.90;;;;;;5101822;28;20421;-44
2023/03/13 12:36:52;;;;;;;10.67;10.20;;;14.80;99.90;;;;;;5106632;27;20456;-44
2023/03/13 12:39:33;;;;;;;10.03;9.63;;;14.90;99.90;;;;;;5120105;27;20523;-49
2023/03/13 12:42:35;;;;;;;11.00;10.50;;;15.00;99.90;;;;;;5121228;27;21457;-45
2023/03/13 12:45:01;;;;;;;10.93;10.43;;;15.20;99.90;;;;;;5121147;27;20764;-45
2023/03/13 12:47:53;;;;;;;9.87;9.47;;;15.20;99.90;;;;;;5112715;27;20409;-43